sensor_id;sensor_type;location;lat;lon;timestamp;temperature;humidity
6824;DHT22;58633;49.470;11.004;2023-07-20T00:01:44;20.40;78.70
6824;DHT22;58633;49.470;11.004;2023-07-20T00:04:11;20.50;78.60
6824;DHT22;58633;49.470;11.004;2023-07-20T00:06:36;20.50;78.30
6824;DHT22;58633;49.470;11.004;2023-07-20T00:09:09;20.50;77.90
6824;DHT22;58633;49.470;11.004;2023-07-20T00:11:38;20.40;78.20
6824;DHT22;58633;49.470;11.004;2023-07-20T00:14:05;20.40;78.70
6824;DHT22;58633;49.470;11.004;2023-07-20T00:16:30;20.30;79.40
6824;DHT22;58633;49.470;11.004;2023-07-20T00:18:56;20.30;80.00
6824;DHT22;58633;49.470;11.004;2023-07-20T00:21:22;20.20;80.60
6824;DHT22;58633;49.470;11.004;2023-07-20T00:23:47;20.10;81.10
6824;DHT22;58633;49.470;11.004;2023-07-20T00:26:13;20.10;82.10
6824;DHT22;58633;49.470;11.004;2023-07-20T00:28:38;20.10;82.90
6824;DHT22;58633;49.470;11.004;2023-07-20T00:31:04;20.10;83.90
6824;DHT22;58633;49.470;11.004;2023-07-20T00:33:29;20.40;84.00
6824;DHT22;58633;49.470;11.004;2023-07-20T00:35:55;20.20;83.20
6824;DHT22;58633;49.470;11.004;2023-07-20T00:38:21;20.20;83.50
6824;DHT22;58633;49.470;11.004;2023-07-20T00:40:46;20.30;84.30
6824;DHT22;58633;49.470;11.004;2023-07-20T00:43:13;20.30;84.10
6824;DHT22;58633;49.470;11.004;2023-07-20T00:45:39;20.20;83.80
6824;DHT22;58633;49.470;11.004;2023-07-20T00:48:05;20.20;84.00
6824;DHT22;58633;49.470;11.004;2023-07-20T00:50:32;20.20;83.30
6824;DHT22;58633;49.470;11.004;2023-07-20T00:52:58;20.10;83.50
6824;DHT22;58633;49.470;11.004;2023-07-20T00:55:25;20.10;84.20
6824;DHT22;58633;49.470;11.004;2023-07-20T00:57:51;20.20;84.70
6824;DHT22;58633;49.470;11.004;2023-07-20T01:00:17;19.90;85.70
6824;DHT22;58633;49.470;11.004;2023-07-20T01:02:43;19.90;87.70
6824;DHT22;58633;49.470;11.004;2023-07-20T01:05:09;20.00;87.60
6824;DHT22;58633;49.470;11.004;2023-07-20T01:07:37;20.00;87.60
6824;DHT22;58633;49.470;11.004;2023-07-20T01:10:33;19.90;87.80
6824;DHT22;58633;49.470;11.004;2023-07-20T01:13:00;19.90;88.50
6824;DHT22;58633;49.470;11.004;2023-07-20T01:15:27;19.90;87.80
6824;DHT22;58633;49.470;11.004;2023-07-20T01:17:52;19.90;88.40
6824;DHT22;58633;49.470;11.004;2023-07-20T01:20:19;19.90;89.10
6824;DHT22;58633;49.470;11.004;2023-07-20T01:25:33;19.80;89.60
6824;DHT22;58633;49.470;11.004;2023-07-20T01:33:41;19.70;91.50
6824;DHT22;58633;49.470;11.004;2023-07-20T01:36:07;19.70;92.60
6824;DHT22;58633;49.470;11.004;2023-07-20T01:38:34;19.70;92.70
6824;DHT22;58633;49.470;11.004;2023-07-20T01:40:59;19.70;92.80
6824;DHT22;58633;49.470;11.004;2023-07-20T01:43:25;19.90;93.50
6824;DHT22;58633;49.470;11.004;2023-07-20T01:45:50;19.70;93.50
6824;DHT22;58633;49.470;11.004;2023-07-20T01:48:16;19.70;93.80
6824;DHT22;58633;49.470;11.004;2023-07-20T01:50:42;19.70;93.60
6824;DHT22;58633;49.470;11.004;2023-07-20T01:53:08;19.80;93.50
6824;DHT22;58633;49.470;11.004;2023-07-20T01:55:33;19.80;93.30
6824;DHT22;58633;49.470;11.004;2023-07-20T01:57:59;19.80;92.60
6824;DHT22;58633;49.470;11.004;2023-07-20T02:00:26;19.80;92.60
6824;DHT22;58633;49.470;11.004;2023-07-20T02:02:51;19.80;92.60
6824;DHT22;58633;49.470;11.004;2023-07-20T02:05:17;19.80;92.80
6824;DHT22;58633;49.470;11.004;2023-07-20T02:07:43;19.90;92.90
6824;DHT22;58633;49.470;11.004;2023-07-20T02:10:09;19.80;92.80
6824;DHT22;58633;49.470;11.004;2023-07-20T02:12:35;19.80;93.40
6824;DHT22;58633;49.470;11.004;2023-07-20T02:15:01;19.90;93.20
6824;DHT22;58633;49.470;11.004;2023-07-20T02:17:27;19.90;93.20
6824;DHT22;58633;49.470;11.004;2023-07-20T02:19:53;19.90;93.40
6824;DHT22;58633;49.470;11.004;2023-07-20T02:22:18;19.90;92.90
6824;DHT22;58633;49.470;11.004;2023-07-20T02:24:44;19.90;92.80
6824;DHT22;58633;49.470;11.004;2023-07-20T02:27:09;19.90;92.20
6824;DHT22;58633;49.470;11.004;2023-07-20T02:29:35;19.90;91.70
6824;DHT22;58633;49.470;11.004;2023-07-20T02:32:01;19.80;92.30
6824;DHT22;58633;49.470;11.004;2023-07-20T02:34:27;19.80;92.50
6824;DHT22;58633;49.470;11.004;2023-07-20T02:36:53;19.90;92.90
6824;DHT22;58633;49.470;11.004;2023-07-20T02:39:21;19.90;92.30
6824;DHT22;58633;49.470;11.004;2023-07-20T02:41:47;19.90;92.30
6824;DHT22;58633;49.470;11.004;2023-07-20T02:44:14;19.90;91.80
6824;DHT22;58633;49.470;11.004;2023-07-20T02:46:39;20.00;92.00
6824;DHT22;58633;49.470;11.004;2023-07-20T02:49:05;20.00;91.60
6824;DHT22;58633;49.470;11.004;2023-07-20T02:51:31;20.00;91.40
6824;DHT22;58633;49.470;11.004;2023-07-20T02:53:56;20.00;91.00
6824;DHT22;58633;49.470;11.004;2023-07-20T02:56:22;20.00;90.70
6824;DHT22;58633;49.470;11.004;2023-07-20T02:58:48;19.90;90.50
6824;DHT22;58633;49.470;11.004;2023-07-20T03:01:14;19.90;90.80
6824;DHT22;58633;49.470;11.004;2023-07-20T03:03:41;19.90;90.70
6824;DHT22;58633;49.470;11.004;2023-07-20T03:06:16;19.90;90.20
6824;DHT22;58633;49.470;11.004;2023-07-20T03:08:44;19.90;90.00
6824;DHT22;58633;49.470;11.004;2023-07-20T03:11:15;19.80;89.30
6824;DHT22;58633;49.470;11.004;2023-07-20T03:13:42;19.70;90.00
6824;DHT22;58633;49.470;11.004;2023-07-20T03:16:08;19.70;90.50
6824;DHT22;58633;49.470;11.004;2023-07-20T03:18:37;19.70;90.70
6824;DHT22;58633;49.470;11.004;2023-07-20T03:21:04;19.60;90.90
6824;DHT22;58633;49.470;11.004;2023-07-20T03:23:29;19.50;91.10
6824;DHT22;58633;49.470;11.004;2023-07-20T03:25:55;19.50;91.10
6824;DHT22;58633;49.470;11.004;2023-07-20T03:28:20;19.50;91.20
6824;DHT22;58633;49.470;11.004;2023-07-20T03:30:46;19.40;91.60
6824;DHT22;58633;49.470;11.004;2023-07-20T03:33:12;19.40;91.80
6824;DHT22;58633;49.470;11.004;2023-07-20T03:35:37;19.40;91.30
6824;DHT22;58633;49.470;11.004;2023-07-20T03:38:04;19.30;91.40
6824;DHT22;58633;49.470;11.004;2023-07-20T03:40:29;19.30;91.40
6824;DHT22;58633;49.470;11.004;2023-07-20T03:42:55;19.30;92.10
6824;DHT22;58633;49.470;11.004;2023-07-20T03:45:21;19.20;92.00
6824;DHT22;58633;49.470;11.004;2023-07-20T03:47:49;19.10;91.90
6824;DHT22;58633;49.470;11.004;2023-07-20T03:50:14;19.20;92.40
6824;DHT22;58633;49.470;11.004;2023-07-20T03:52:40;19.20;92.50
6824;DHT22;58633;49.470;11.004;2023-07-20T03:55:06;19.10;92.40
6824;DHT22;58633;49.470;11.004;2023-07-20T03:57:32;19.10;92.90
6824;DHT22;58633;49.470;11.004;2023-07-20T03:59:57;19.10;93.20
6824;DHT22;58633;49.470;11.004;2023-07-20T04:02:23;19.10;93.30
6824;DHT22;58633;49.470;11.004;2023-07-20T04:04:49;19.10;93.30
6824;DHT22;58633;49.470;11.004;2023-07-20T04:07:14;19.10;93.10
6824;DHT22;58633;49.470;11.004;2023-07-20T04:09:40;19.10;93.20
6824;DHT22;58633;49.470;11.004;2023-07-20T04:12:06;19.10;93.00
6824;DHT22;58633;49.470;11.004;2023-07-20T04:14:32;19.10;92.10
6824;DHT22;58633;49.470;11.004;2023-07-20T04:16:57;19.10;92.40
6824;DHT22;58633;49.470;11.004;2023-07-20T04:19:23;19.10;92.90
6824;DHT22;58633;49.470;11.004;2023-07-20T04:21:48;19.10;92.90
6824;DHT22;58633;49.470;11.004;2023-07-20T04:24:14;19.10;92.80
6824;DHT22;58633;49.470;11.004;2023-07-20T04:26:39;19.60;93.30
6824;DHT22;58633;49.470;11.004;2023-07-20T04:29:05;19.00;93.40
6824;DHT22;58633;49.470;11.004;2023-07-20T04:31:30;19.00;93.10
6824;DHT22;58633;49.470;11.004;2023-07-20T04:33:58;18.90;93.40
6824;DHT22;58633;49.470;11.004;2023-07-20T04:36:24;18.90;93.50
6824;DHT22;58633;49.470;11.004;2023-07-20T04:38:49;18.90;93.70
6824;DHT22;58633;49.470;11.004;2023-07-20T04:41:15;18.90;94.40
6824;DHT22;58633;49.470;11.004;2023-07-20T04:43:44;18.90;94.00
6824;DHT22;58633;49.470;11.004;2023-07-20T04:46:13;18.90;94.60
6824;DHT22;58633;49.470;11.004;2023-07-20T04:48:38;18.90;94.40
6824;DHT22;58633;49.470;11.004;2023-07-20T04:51:05;18.90;93.70
6824;DHT22;58633;49.470;11.004;2023-07-20T04:53:31;18.90;94.30
6824;DHT22;58633;49.470;11.004;2023-07-20T04:55:56;18.90;93.90
6824;DHT22;58633;49.470;11.004;2023-07-20T04:58:22;18.90;93.90
6824;DHT22;58633;49.470;11.004;2023-07-20T05:00:49;18.90;92.90
6824;DHT22;58633;49.470;11.004;2023-07-20T05:03:15;18.90;92.80
6824;DHT22;58633;49.470;11.004;2023-07-20T05:05:40;18.90;92.70
6824;DHT22;58633;49.470;11.004;2023-07-20T05:08:06;18.90;92.10
6824;DHT22;58633;49.470;11.004;2023-07-20T05:10:32;18.90;92.10
6824;DHT22;58633;49.470;11.004;2023-07-20T05:12:58;18.90;92.20
6824;DHT22;58633;49.470;11.004;2023-07-20T05:15:23;18.80;91.90
6824;DHT22;58633;49.470;11.004;2023-07-20T05:17:49;20.00;92.20
6824;DHT22;58633;49.470;11.004;2023-07-20T05:20:15;18.80;91.80
6824;DHT22;58633;49.470;11.004;2023-07-20T05:22:41;18.80;92.10
6824;DHT22;58633;49.470;11.004;2023-07-20T05:25:10;18.80;92.50
6824;DHT22;58633;49.470;11.004;2023-07-20T05:27:37;18.80;92.20
6824;DHT22;58633;49.470;11.004;2023-07-20T05:30:03;18.80;92.30
6824;DHT22;58633;49.470;11.004;2023-07-20T05:32:29;18.80;92.40
6824;DHT22;58633;49.470;11.004;2023-07-20T05:34:55;18.80;92.70
6824;DHT22;58633;49.470;11.004;2023-07-20T05:37:21;18.80;92.40
6824;DHT22;58633;49.470;11.004;2023-07-20T05:39:46;18.80;92.20
6824;DHT22;58633;49.470;11.004;2023-07-20T05:42:12;18.80;92.00
6824;DHT22;58633;49.470;11.004;2023-07-20T05:44:37;18.70;91.30
6824;DHT22;58633;49.470;11.004;2023-07-20T05:47:03;18.70;91.30
6824;DHT22;58633;49.470;11.004;2023-07-20T05:49:29;18.70;91.80
6824;DHT22;58633;49.470;11.004;2023-07-20T05:51:55;18.70;91.20
6824;DHT22;58633;49.470;11.004;2023-07-20T05:54:21;18.80;90.50
6824;DHT22;58633;49.470;11.004;2023-07-20T05:56:47;18.90;89.40
6824;DHT22;58633;49.470;11.004;2023-07-20T05:59:12;19.00;88.30
6824;DHT22;58633;49.470;11.004;2023-07-20T06:01:38;19.00;86.40
6824;DHT22;58633;49.470;11.004;2023-07-20T06:04:04;19.00;84.30
6824;DHT22;58633;49.470;11.004;2023-07-20T06:06:29;18.90;83.00
6824;DHT22;58633;49.470;11.004;2023-07-20T06:08:55;19.40;82.90
6824;DHT22;58633;49.470;11.004;2023-07-20T06:11:20;18.90;82.10
6824;DHT22;58633;49.470;11.004;2023-07-20T06:13:46;18.90;82.10
6824;DHT22;58633;49.470;11.004;2023-07-20T06:16:11;18.90;82.00
6824;DHT22;58633;49.470;11.004;2023-07-20T06:18:37;18.90;81.80
6824;DHT22;58633;49.470;11.004;2023-07-20T06:21:03;19.00;81.50
6824;DHT22;58633;49.470;11.004;2023-07-20T06:23:28;19.00;80.90
6824;DHT22;58633;49.470;11.004;2023-07-20T06:25:54;20.30;81.70
6824;DHT22;58633;49.470;11.004;2023-07-20T06:28:19;19.10;80.40
6824;DHT22;58633;49.470;11.004;2023-07-20T06:30:45;19.00;78.80
6824;DHT22;58633;49.470;11.004;2023-07-20T06:33:11;19.00;79.00
6824;DHT22;58633;49.470;11.004;2023-07-20T06:35:36;19.10;78.80
6824;DHT22;58633;49.470;11.004;2023-07-20T06:38:02;19.10;78.40
6824;DHT22;58633;49.470;11.004;2023-07-20T06:40:30;19.10;78.20
6824;DHT22;58633;49.470;11.004;2023-07-20T06:42:55;19.20;77.50
6824;DHT22;58633;49.470;11.004;2023-07-20T06:45:21;20.50;77.90
6824;DHT22;58633;49.470;11.004;2023-07-20T06:47:47;19.40;76.70
6824;DHT22;58633;49.470;11.004;2023-07-20T06:50:12;19.40;75.80
6824;DHT22;58633;49.470;11.004;2023-07-20T06:52:38;19.50;75.50
6824;DHT22;58633;49.470;11.004;2023-07-20T06:55:05;19.50;75.40
6824;DHT22;58633;49.470;11.004;2023-07-20T06:57:32;19.60;73.70
6824;DHT22;58633;49.470;11.004;2023-07-20T06:59:57;19.70;71.60
6824;DHT22;58633;49.470;11.004;2023-07-20T07:02:23;20.80;72.00
6824;DHT22;58633;49.470;11.004;2023-07-20T07:04:48;19.80;70.00
6824;DHT22;58633;49.470;11.004;2023-07-20T07:07:14;19.90;68.50
6824;DHT22;58633;49.470;11.004;2023-07-20T07:09:41;19.90;67.70
6824;DHT22;58633;49.470;11.004;2023-07-20T07:12:07;19.90;67.00
6824;DHT22;58633;49.470;11.004;2023-07-20T07:14:33;19.90;66.70
6824;DHT22;58633;49.470;11.004;2023-07-20T07:16:58;19.90;65.80
6824;DHT22;58633;49.470;11.004;2023-07-20T07:19:24;19.90;65.60
6824;DHT22;58633;49.470;11.004;2023-07-20T07:21:49;20.10;65.90
6824;DHT22;58633;49.470;11.004;2023-07-20T07:24:16;20.20;65.50
6824;DHT22;58633;49.470;11.004;2023-07-20T07:26:41;21.50;66.20
6824;DHT22;58633;49.470;11.004;2023-07-20T07:29:07;20.30;64.50
6824;DHT22;58633;49.470;11.004;2023-07-20T07:31:34;20.30;64.30
6824;DHT22;58633;49.470;11.004;2023-07-20T07:34:01;20.40;63.80
6824;DHT22;58633;49.470;11.004;2023-07-20T07:36:27;20.50;63.90
6824;DHT22;58633;49.470;11.004;2023-07-20T07:38:53;20.50;63.50
6824;DHT22;58633;49.470;11.004;2023-07-20T07:41:18;20.50;62.50
6824;DHT22;58633;49.470;11.004;2023-07-20T07:43:44;20.90;62.60
6824;DHT22;58633;49.470;11.004;2023-07-20T07:46:10;20.70;61.80
6824;DHT22;58633;49.470;11.004;2023-07-20T07:48:35;20.80;61.20
6824;DHT22;58633;49.470;11.004;2023-07-20T07:51:01;20.90;60.70
6824;DHT22;58633;49.470;11.004;2023-07-20T07:53:26;20.90;60.70
6824;DHT22;58633;49.470;11.004;2023-07-20T07:55:52;20.90;60.50
6824;DHT22;58633;49.470;11.004;2023-07-20T07:58:18;21.00;60.00
6824;DHT22;58633;49.470;11.004;2023-07-20T08:00:43;20.90;60.20
6824;DHT22;58633;49.470;11.004;2023-07-20T08:03:09;21.00;60.30
6824;DHT22;58633;49.470;11.004;2023-07-20T08:05:35;21.00;59.60
6824;DHT22;58633;49.470;11.004;2023-07-20T08:08:02;21.00;59.10
6824;DHT22;58633;49.470;11.004;2023-07-20T08:10:29;21.10;59.00
6824;DHT22;58633;49.470;11.004;2023-07-20T08:12:54;21.20;58.80
6824;DHT22;58633;49.470;11.004;2023-07-20T08:15:20;21.30;58.20
6824;DHT22;58633;49.470;11.004;2023-07-20T08:17:45;21.20;57.30
6824;DHT22;58633;49.470;11.004;2023-07-20T08:20:12;21.20;57.00
6824;DHT22;58633;49.470;11.004;2023-07-20T08:22:38;21.10;57.40
6824;DHT22;58633;49.470;11.004;2023-07-20T08:25:05;21.10;57.10
6824;DHT22;58633;49.470;11.004;2023-07-20T08:27:31;21.10;57.00
6824;DHT22;58633;49.470;11.004;2023-07-20T08:29:57;21.10;57.10
6824;DHT22;58633;49.470;11.004;2023-07-20T08:32:22;21.20;57.00
6824;DHT22;58633;49.470;11.004;2023-07-20T08:34:48;21.20;56.70
6824;DHT22;58633;49.470;11.004;2023-07-20T08:37:13;21.30;56.30
6824;DHT22;58633;49.470;11.004;2023-07-20T08:39:39;21.20;55.70
6824;DHT22;58633;49.470;11.004;2023-07-20T08:42:05;21.20;55.70
6824;DHT22;58633;49.470;11.004;2023-07-20T08:44:35;21.20;55.60
6824;DHT22;58633;49.470;11.004;2023-07-20T08:47:02;21.20;55.20
6824;DHT22;58633;49.470;11.004;2023-07-20T08:49:34;21.40;55.20
6824;DHT22;58633;49.470;11.004;2023-07-20T08:52:00;21.40;54.80
6824;DHT22;58633;49.470;11.004;2023-07-20T08:54:29;21.50;54.50
6824;DHT22;58633;49.470;11.004;2023-07-20T08:56:57;21.50;54.30
6824;DHT22;58633;49.470;11.004;2023-07-20T08:59:23;21.60;54.50
6824;DHT22;58633;49.470;11.004;2023-07-20T09:01:50;21.70;54.10
6824;DHT22;58633;49.470;11.004;2023-07-20T09:04:17;21.80;53.90
6824;DHT22;58633;49.470;11.004;2023-07-20T09:06:42;21.90;53.90
6824;DHT22;58633;49.470;11.004;2023-07-20T09:09:08;21.90;53.60
6824;DHT22;58633;49.470;11.004;2023-07-20T09:11:33;22.10;53.90
6824;DHT22;58633;49.470;11.004;2023-07-20T09:14:03;22.10;53.10
6824;DHT22;58633;49.470;11.004;2023-07-20T09:16:29;22.30;53.40
6824;DHT22;58633;49.470;11.004;2023-07-20T09:18:58;22.40;53.60
6824;DHT22;58633;49.470;11.004;2023-07-20T09:21:23;22.60;53.50
6824;DHT22;58633;49.470;11.004;2023-07-20T09:23:49;22.70;53.30
6824;DHT22;58633;49.470;11.004;2023-07-20T09:26:18;22.80;52.50
6824;DHT22;58633;49.470;11.004;2023-07-20T09:28:53;22.80;52.40
6824;DHT22;58633;49.470;11.004;2023-07-20T09:31:22;22.90;52.20
6824;DHT22;58633;49.470;11.004;2023-07-20T09:33:49;22.90;51.90
6824;DHT22;58633;49.470;11.004;2023-07-20T09:36:15;23.10;52.20
6824;DHT22;58633;49.470;11.004;2023-07-20T09:38:44;23.30;51.10
6824;DHT22;58633;49.470;11.004;2023-07-20T09:41:14;23.40;50.80
6824;DHT22;58633;49.470;11.004;2023-07-20T09:43:41;23.50;49.80
6824;DHT22;58633;49.470;11.004;2023-07-20T09:46:07;23.40;49.20
6824;DHT22;58633;49.470;11.004;2023-07-20T09:48:32;25.50;50.90
6824;DHT22;58633;49.470;11.004;2023-07-20T09:50:58;23.30;49.20
6824;DHT22;58633;49.470;11.004;2023-07-20T09:53:25;24.60;50.20
6824;DHT22;58633;49.470;11.004;2023-07-20T09:55:52;23.50;49.50
6824;DHT22;58633;49.470;11.004;2023-07-20T09:58:18;24.20;47.90
6824;DHT22;58633;49.470;11.004;2023-07-20T10:00:44;23.80;46.90
6824;DHT22;58633;49.470;11.004;2023-07-20T10:03:15;23.90;46.10
6824;DHT22;58633;49.470;11.004;2023-07-20T10:05:46;24.00;45.50
6824;DHT22;58633;49.470;11.004;2023-07-20T10:08:15;24.00;46.00
6824;DHT22;58633;49.470;11.004;2023-07-20T10:10:42;24.70;46.70
6824;DHT22;58633;49.470;11.004;2023-07-20T10:13:21;24.20;46.50
6824;DHT22;58633;49.470;11.004;2023-07-20T10:15:50;23.90;46.30
6824;DHT22;58633;49.470;11.004;2023-07-20T10:18:38;24.00;45.70
6824;DHT22;58633;49.470;11.004;2023-07-20T10:21:07;24.20;45.40
6824;DHT22;58633;49.470;11.004;2023-07-20T10:23:33;24.30;45.80
6824;DHT22;58633;49.470;11.004;2023-07-20T10:26:01;24.30;45.10
6824;DHT22;58633;49.470;11.004;2023-07-20T10:28:27;24.30;44.30
6824;DHT22;58633;49.470;11.004;2023-07-20T10:30:53;24.50;44.60
6824;DHT22;58633;49.470;11.004;2023-07-20T10:33:20;24.60;43.40
6824;DHT22;58633;49.470;11.004;2023-07-20T10:35:56;24.60;43.10
6824;DHT22;58633;49.470;11.004;2023-07-20T10:38:41;24.60;43.40
6824;DHT22;58633;49.470;11.004;2023-07-20T10:41:35;25.50;43.90
6824;DHT22;58633;49.470;11.004;2023-07-20T10:44:02;25.00;43.10
6824;DHT22;58633;49.470;11.004;2023-07-20T10:49:07;25.10;42.60
6824;DHT22;58633;49.470;11.004;2023-07-20T10:51:43;24.80;42.40
6824;DHT22;58633;49.470;11.004;2023-07-20T10:56:56;24.80;42.00
6824;DHT22;58633;49.470;11.004;2023-07-20T11:01:57;25.10;40.80
6824;DHT22;58633;49.470;11.004;2023-07-20T11:04:46;25.20;39.70
6824;DHT22;58633;49.470;11.004;2023-07-20T11:07:16;25.20;40.40
6824;DHT22;58633;49.470;11.004;2023-07-20T11:09:42;25.30;39.00
6824;DHT22;58633;49.470;11.004;2023-07-20T11:12:18;25.40;38.10
6824;DHT22;58633;49.470;11.004;2023-07-20T11:14:53;25.70;38.80
6824;DHT22;58633;49.470;11.004;2023-07-20T11:17:19;25.90;39.30
6824;DHT22;58633;49.470;11.004;2023-07-20T11:19:55;25.90;38.70
6824;DHT22;58633;49.470;11.004;2023-07-20T11:22:21;26.10;38.60
6824;DHT22;58633;49.470;11.004;2023-07-20T11:24:47;26.10;38.50
6824;DHT22;58633;49.470;11.004;2023-07-20T11:27:14;25.80;38.60
6824;DHT22;58633;49.470;11.004;2023-07-20T11:29:40;25.60;38.90
6824;DHT22;58633;49.470;11.004;2023-07-20T11:32:06;25.70;39.20
6824;DHT22;58633;49.470;11.004;2023-07-20T11:34:32;25.80;39.50
6824;DHT22;58633;49.470;11.004;2023-07-20T11:36:58;26.00;39.40
6824;DHT22;58633;49.470;11.004;2023-07-20T11:39:24;26.20;39.10
6824;DHT22;58633;49.470;11.004;2023-07-20T11:41:55;26.00;38.70
6824;DHT22;58633;49.470;11.004;2023-07-20T11:44:28;26.00;39.30
6824;DHT22;58633;49.470;11.004;2023-07-20T11:47:08;26.10;38.80
6824;DHT22;58633;49.470;11.004;2023-07-20T11:49:35;26.50;38.30
6824;DHT22;58633;49.470;11.004;2023-07-20T11:52:02;26.90;38.00
6824;DHT22;58633;49.470;11.004;2023-07-20T11:54:28;27.00;35.90
6824;DHT22;58633;49.470;11.004;2023-07-20T11:56:54;27.10;34.60
6824;DHT22;58633;49.470;11.004;2023-07-20T11:59:21;27.50;34.90
6824;DHT22;58633;49.470;11.004;2023-07-20T12:01:47;27.60;32.40
6824;DHT22;58633;49.470;11.004;2023-07-20T12:04:12;27.70;32.60
6824;DHT22;58633;49.470;11.004;2023-07-20T12:06:38;27.70;32.60
6824;DHT22;58633;49.470;11.004;2023-07-20T12:09:04;27.80;30.90
6824;DHT22;58633;49.470;11.004;2023-07-20T12:11:37;27.80;31.40
6824;DHT22;58633;49.470;11.004;2023-07-20T12:14:09;27.80;31.90
6824;DHT22;58633;49.470;11.004;2023-07-20T12:16:36;27.90;32.60
6824;DHT22;58633;49.470;11.004;2023-07-20T12:19:12;28.20;32.50
6824;DHT22;58633;49.470;11.004;2023-07-20T12:21:40;28.50;32.00
6824;DHT22;58633;49.470;11.004;2023-07-20T12:24:08;28.80;32.50
6824;DHT22;58633;49.470;11.004;2023-07-20T12:26:35;28.90;31.20
6824;DHT22;58633;49.470;11.004;2023-07-20T12:29:01;29.10;31.30
6824;DHT22;58633;49.470;11.004;2023-07-20T12:31:29;29.30;30.30
6824;DHT22;58633;49.470;11.004;2023-07-20T12:33:55;29.40;30.80
6824;DHT22;58633;49.470;11.004;2023-07-20T12:36:21;29.60;31.00
6824;DHT22;58633;49.470;11.004;2023-07-20T12:38:47;29.90;31.00
6824;DHT22;58633;49.470;11.004;2023-07-20T12:41:13;30.20;31.50
6824;DHT22;58633;49.470;11.004;2023-07-20T12:43:43;30.40;30.10
6824;DHT22;58633;49.470;11.004;2023-07-20T12:46:10;30.50;30.60
6824;DHT22;58633;49.470;11.004;2023-07-20T12:48:37;30.70;29.90
6824;DHT22;58633;49.470;11.004;2023-07-20T12:51:04;30.70;30.00
6824;DHT22;58633;49.470;11.004;2023-07-20T12:53:31;31.20;30.70
6824;DHT22;58633;49.470;11.004;2023-07-20T12:55:57;31.40;30.20
6824;DHT22;58633;49.470;11.004;2023-07-20T12:58:22;31.60;29.00
6824;DHT22;58633;49.470;11.004;2023-07-20T13:00:49;31.70;29.40
6824;DHT22;58633;49.470;11.004;2023-07-20T13:03:14;32.00;29.90
6824;DHT22;58633;49.470;11.004;2023-07-20T13:05:41;32.20;30.00
6824;DHT22;58633;49.470;11.004;2023-07-20T13:08:07;32.20;30.40
6824;DHT22;58633;49.470;11.004;2023-07-20T13:10:32;32.00;30.70
6824;DHT22;58633;49.470;11.004;2023-07-20T13:13:00;32.00;31.20
6824;DHT22;58633;49.470;11.004;2023-07-20T13:15:30;33.20;30.10
6824;DHT22;58633;49.470;11.004;2023-07-20T13:17:59;31.90;29.90
6824;DHT22;58633;49.470;11.004;2023-07-20T13:20:25;31.80;30.00
6824;DHT22;58633;49.470;11.004;2023-07-20T13:22:51;31.20;29.60
6824;DHT22;58633;49.470;11.004;2023-07-20T13:25:17;30.70;29.90
6824;DHT22;58633;49.470;11.004;2023-07-20T13:27:44;30.50;30.70
6824;DHT22;58633;49.470;11.004;2023-07-20T13:30:10;31.20;30.50
6824;DHT22;58633;49.470;11.004;2023-07-20T13:32:42;31.60;29.80
6824;DHT22;58633;49.470;11.004;2023-07-20T13:35:08;32.10;28.40
6824;DHT22;58633;49.470;11.004;2023-07-20T13:37:33;32.30;28.60
6824;DHT22;58633;49.470;11.004;2023-07-20T13:39:59;32.70;28.50
6824;DHT22;58633;49.470;11.004;2023-07-20T13:42:24;32.90;28.80
6824;DHT22;58633;49.470;11.004;2023-07-20T13:44:50;33.40;28.90
6824;DHT22;58633;49.470;11.004;2023-07-20T13:47:16;34.80;29.30
6824;DHT22;58633;49.470;11.004;2023-07-20T13:49:42;34.90;28.60
6824;DHT22;58633;49.470;11.004;2023-07-20T13:52:08;34.60;27.60
6824;DHT22;58633;49.470;11.004;2023-07-20T13:54:33;34.50;27.90
6824;DHT22;58633;49.470;11.004;2023-07-20T13:56:59;33.90;27.20
6824;DHT22;58633;49.470;11.004;2023-07-20T13:59:24;33.50;27.80
6824;DHT22;58633;49.470;11.004;2023-07-20T14:01:50;33.80;28.20
6824;DHT22;58633;49.470;11.004;2023-07-20T14:04:16;33.80;27.70
6824;DHT22;58633;49.470;11.004;2023-07-20T14:06:42;34.50;27.30
6824;DHT22;58633;49.470;11.004;2023-07-20T14:09:08;35.80;27.50
6824;DHT22;58633;49.470;11.004;2023-07-20T14:11:33;34.80;26.60
6824;DHT22;58633;49.470;11.004;2023-07-20T14:13:59;33.90;27.00
6824;DHT22;58633;49.470;11.004;2023-07-20T14:16:24;33.70;27.30
6824;DHT22;58633;49.470;11.004;2023-07-20T14:18:50;34.00;27.60
6824;DHT22;58633;49.470;11.004;2023-07-20T14:21:17;34.20;27.30
6824;DHT22;58633;49.470;11.004;2023-07-20T14:23:47;34.60;27.50
6824;DHT22;58633;49.470;11.004;2023-07-20T14:26:13;35.00;26.80
6824;DHT22;58633;49.470;11.004;2023-07-20T14:28:41;35.10;27.00
6824;DHT22;58633;49.470;11.004;2023-07-20T14:31:07;35.10;26.40
6824;DHT22;58633;49.470;11.004;2023-07-20T14:33:32;35.30;26.30
6824;DHT22;58633;49.470;11.004;2023-07-20T14:35:58;35.30;26.00
6824;DHT22;58633;49.470;11.004;2023-07-20T14:38:23;35.30;25.80
6824;DHT22;58633;49.470;11.004;2023-07-20T14:40:49;35.40;26.60
6824;DHT22;58633;49.470;11.004;2023-07-20T14:43:15;35.60;26.40
6824;DHT22;58633;49.470;11.004;2023-07-20T14:45:41;36.00;26.40
6824;DHT22;58633;49.470;11.004;2023-07-20T14:48:07;36.10;25.80
6824;DHT22;58633;49.470;11.004;2023-07-20T14:50:32;36.10;25.20
6824;DHT22;58633;49.470;11.004;2023-07-20T14:52:58;36.20;25.00
6824;DHT22;58633;49.470;11.004;2023-07-20T14:55:24;36.10;25.00
6824;DHT22;58633;49.470;11.004;2023-07-20T14:57:51;36.60;25.40
6824;DHT22;58633;49.470;11.004;2023-07-20T15:00:17;36.50;24.90
6824;DHT22;58633;49.470;11.004;2023-07-20T15:02:42;36.00;25.30
6824;DHT22;58633;49.470;11.004;2023-07-20T15:05:10;35.40;25.70
6824;DHT22;58633;49.470;11.004;2023-07-20T15:07:36;34.90;25.90
6824;DHT22;58633;49.470;11.004;2023-07-20T15:10:02;35.00;26.20
6824;DHT22;58633;49.470;11.004;2023-07-20T15:12:29;35.30;26.70
6824;DHT22;58633;49.470;11.004;2023-07-20T15:15:08;35.40;26.10
6824;DHT22;58633;49.470;11.004;2023-07-20T15:17:35;35.60;26.10
6824;DHT22;58633;49.470;11.004;2023-07-20T15:20:02;35.70;26.00
6824;DHT22;58633;49.470;11.004;2023-07-20T15:22:30;35.90;25.70
6824;DHT22;58633;49.470;11.004;2023-07-20T15:24:56;36.60;25.80
6824;DHT22;58633;49.470;11.004;2023-07-20T15:27:21;36.40;25.40
6824;DHT22;58633;49.470;11.004;2023-07-20T15:29:49;36.80;25.00
6824;DHT22;58633;49.470;11.004;2023-07-20T15:32:17;36.40;25.00
6824;DHT22;58633;49.470;11.004;2023-07-20T15:34:44;36.50;24.80
6824;DHT22;58633;49.470;11.004;2023-07-20T15:37:10;36.70;25.00
6824;DHT22;58633;49.470;11.004;2023-07-20T15:39:36;37.00;25.40
6824;DHT22;58633;49.470;11.004;2023-07-20T15:42:05;36.30;25.10
6824;DHT22;58633;49.470;11.004;2023-07-20T15:44:31;36.40;25.20